createdAt,value
2022-09-28T00:02:29.448Z,98.5
2022-09-28T00:12:42.018Z,98.5
2022-09-28T00:17:48.419Z,98.6
2022-09-28T00:22:54.785Z,98.6
2022-09-28T00:28:01.155Z,98.7
2022-09-28T00:33:07.631Z,98.8
2022-09-28T00:38:14.101Z,98.8
2022-09-28T00:48:26.934Z,98.7
2022-09-28T00:53:23.267Z,98.6
2022-09-28T00:58:39.679Z,98.6
2022-09-28T01:04:10.294Z,98.6
2022-09-28T01:08:52.709Z,98.6
2022-09-28T01:13:59.094Z,98.6
2022-09-28T01:18:55.458Z,98.6
2022-09-28T01:24:11.902Z,98.6
2022-09-28T01:34:14.722Z,98.7
2022-09-28T01:39:31.251Z,98.7
2022-09-28T01:44:57.653Z,98.7
2022-09-28T01:49:44.007Z,98.8
2022-09-28T01:55:14.463Z,98.9
2022-09-28T02:05:03.146Z,98.9
2022-09-28T02:10:33.728Z,99.0
2022-09-28T02:20:26.514Z,99.2
2022-09-28T02:25:49.629Z,99.4
2022-09-28T02:30:35.926Z,99.4
2022-09-28T02:35:42.386Z,99.5
2022-09-28T02:40:38.939Z,99.5
2022-09-28T02:51:01.645Z,99.5
2022-09-28T02:56:32.074Z,99.7
2022-09-28T03:01:14.512Z,99.8
2022-09-28T03:06:20.905Z,99.6
2022-09-28T03:11:47.440Z,99.5
2022-09-28T03:16:53.837Z,99.6
2022-09-28T03:21:40.160Z,99.5
2022-09-28T03:26:36.522Z,99.5
2022-09-28T03:31:52.976Z,99.6
2022-09-28T03:36:59.466Z,99.6
2022-09-28T03:47:12.328Z,99.9
2022-09-28T03:52:18.731Z,99.6
2022-09-28T03:57:25.092Z,99.8
2022-09-28T04:02:31.692Z,99.7
2022-09-28T04:08:02.126Z,99.5
2022-09-28T04:17:51.017Z,99.4
2022-09-28T04:22:57.395Z,99.4
2022-09-28T04:28:03.798Z,99.3
2022-09-28T04:33:10.156Z,99.3
2022-09-28T04:38:06.514Z,99.3
2022-09-28T04:43:12.920Z,99.4
2022-09-28T04:48:53.371Z,99.3
2022-09-28T04:53:35.732Z,99.1
2022-09-28T04:58:32.206Z,99.3
2022-09-28T05:03:48.581Z,99.2
2022-09-28T05:09:15.106Z,99.2
2022-09-28T05:14:00.370Z,99.3
2022-09-28T05:21:27.994Z,99.5
2022-09-28T05:24:14.108Z,99.7
2022-09-28T05:29:20.532Z,99.6
2022-09-28T05:34:28.427Z,99.5
2022-09-28T05:50:07.626Z,99.9
2022-09-28T05:55:38.051Z,99.6
2022-09-28T06:00:00.402Z,99.6
2022-09-28T06:05:06.732Z,99.7
2022-09-28T06:10:13.233Z,99.6
2022-09-28T06:15:19.647Z,99.6
2022-09-28T06:20:25.998Z,99.7
2022-09-28T06:25:32.388Z,99.9
2022-09-28T06:30:38.906Z,99.7
2022-09-28T06:36:05.174Z,99.6
2022-09-28T06:40:51.620Z,99.5
2022-09-28T06:45:58.196Z,99.5
2022-09-28T06:56:28.286Z,99.6
2022-09-28T07:06:23.659Z,99.9
2022-09-28T07:11:20.044Z,99.9
2022-09-28T07:22:07.015Z,99.8
2022-09-28T07:27:13.386Z,99.7
2022-09-28T07:47:38.914Z,99.9
2022-09-28T07:52:11.224Z,99.9
2022-09-28T07:57:51.809Z,99.9
2022-09-28T08:07:30.575Z,99.8
2022-09-28T08:12:36.960Z,99.3
2022-09-28T08:17:53.384Z,98.8
2022-09-28T08:22:59.779Z,98.4
2022-09-28T08:28:06.133Z,98.2
2022-09-28T08:33:32.721Z,98.0
2022-09-28T08:43:45.456Z,98.0
2022-09-28T08:53:38.201Z,98.1
2022-09-28T08:58:44.544Z,98.5
2022-09-28T09:03:50.939Z,98.0
2022-09-28T09:08:57.482Z,96.6
2022-09-28T09:19:10.338Z,96.0
2022-09-28T09:24:16.823Z,96.1
2022-09-28T09:29:23.187Z,95.8
2022-09-28T09:34:29.576Z,94.9
2022-09-28T09:39:36.037Z,94.7
2022-09-28T09:49:48.718Z,94.0
2022-09-28T09:54:55.177Z,93.5
2022-09-28T10:00:21.629Z,92.5
2022-09-28T10:05:08.087Z,90.3
2022-09-28T10:15:10.922Z,87.5
2022-09-28T10:20:27.337Z,86.1
2022-09-28T10:25:33.757Z,86.1
2022-09-28T10:30:30.128Z,83.9
2022-09-28T10:35:46.509Z,81.5
2022-09-28T10:40:53.050Z,81.5
2022-09-28T10:45:59.293Z,81.6
2022-09-28T10:56:02.054Z,79.0
2022-09-28T11:01:22.533Z,79.3
2022-09-28T11:11:31.243Z,81.4
2022-09-28T11:17:01.780Z,81.7
2022-09-28T11:37:03.129Z,80.9
2022-09-28T11:42:14.129Z,77.9
2022-09-28T11:47:39.942Z,78.2
2022-09-28T11:57:28.870Z,79.8
2022-09-28T12:02:59.413Z,80.8
2022-09-28T12:07:41.869Z,80.1
2022-09-28T12:12:48.255Z,79.1
2022-09-28T12:18:18.729Z,78.7
2022-09-28T12:23:01.082Z,78.3
2022-09-28T12:28:07.468Z,80.1
2022-09-28T12:34:25.983Z,79.3
2022-09-28T12:38:20.231Z,80.2
2022-09-28T12:44:26.760Z,79.5
2022-09-28T12:48:32.996Z,79.2
2022-09-28T12:53:29.348Z,78.9
2022-09-28T12:58:45.761Z,79.3
2022-09-28T13:03:56.216Z,80.1
2022-09-28T13:08:58.528Z,80.9
2022-09-28T13:14:04.898Z,81.6
2022-09-28T13:19:11.435Z,82.2
2022-09-28T13:24:20.916Z,82.3
2022-09-28T13:39:37.092Z,83.1
2022-09-28T13:44:43.573Z,83.2
2022-09-28T13:49:49.992Z,83.2
2022-09-28T13:54:46.356Z,83.4
2022-09-28T14:00:02.710Z,83.3
2022-09-28T14:05:09.142Z,82.3
2022-09-28T14:15:21.976Z,82.7
2022-09-28T14:20:28.667Z,82.2
2022-09-28T14:25:33.748Z,81.6
2022-09-28T14:35:47.650Z,82.2
2022-09-28T14:40:54.089Z,82.0
2022-09-28T14:46:00.551Z,82.4
2022-09-28T14:56:37.320Z,82.7
2022-09-28T15:01:23.663Z,83.0
2022-09-28T15:06:26.067Z,82.3
2022-09-28T15:11:32.530Z,82.8
2022-09-28T15:17:02.961Z,82.6
2022-09-28T15:22:05.383Z,82.2
2022-09-28T15:27:11.724Z,82.2
2022-09-28T15:31:58.062Z,82.8
2022-09-28T15:36:54.417Z,82.8
2022-09-28T15:42:10.856Z,83.4
2022-09-28T15:47:17.186Z,84.1
2022-09-28T15:52:13.567Z,84.3
2022-09-28T15:57:29.980Z,84.7
2022-09-28T16:02:36.510Z,84.9
2022-09-28T16:07:32.752Z,84.5
2022-09-28T16:18:15.553Z,85.3
2022-09-28T16:23:01.893Z,86.1
2022-09-28T16:28:08.406Z,86.3
2022-09-28T16:33:38.804Z,86.8
2022-09-28T16:38:21.144Z,87.4
2022-09-28T16:43:27.586Z,87.7
2022-09-28T16:48:34.050Z,88.0
2022-09-28T16:53:40.426Z,88.4
2022-09-28T16:58:46.839Z,88.9
2022-09-28T17:04:07.229Z,89.2
2022-09-28T17:08:59.581Z,89.4
2022-09-28T17:14:05.995Z,89.9
2022-09-28T17:19:12.392Z,89.6
2022-09-28T17:24:26.303Z,90.0
2022-09-28T17:29:28.765Z,90.3
2022-09-28T17:34:35.112Z,90.3
2022-09-28T17:39:42.630Z,90.3
2022-09-28T17:44:53.653Z,90.6
2022-09-28T17:55:02.368Z,91.0
2022-09-28T18:00:08.896Z,91.1
2022-09-28T18:05:15.256Z,91.2
2022-09-28T18:10:21.649Z,91.3
2022-09-28T18:15:28.109Z,91.4
2022-09-28T18:20:24.393Z,91.6
2022-09-28T18:26:08.372Z,91.7
2022-09-28T18:30:50.984Z,91.7
2022-09-28T18:41:07.731Z,92.1
2022-09-28T18:46:10.199Z,92.3
2022-09-28T18:51:48.125Z,92.4
2022-09-28T18:57:26.552Z,92.4
2022-09-28T19:02:01.141Z,92.6
2022-09-28T19:06:59.263Z,92.8
2022-09-28T19:12:10.240Z,92.7
2022-09-28T19:18:04.778Z,92.9
2022-09-28T19:22:26.988Z,92.9
2022-09-28T19:27:25.454Z,93.1
2022-09-28T19:32:31.841Z,93.2
2022-09-28T19:37:22.222Z,93.2
2022-09-28T19:42:44.592Z,93.4
2022-09-28T19:47:31.057Z,93.3
2022-09-28T19:52:37.478Z,93.6
2022-09-28T19:57:43.824Z,93.6
2022-09-28T20:03:18.253Z,93.7
2022-09-28T20:08:04.251Z,93.7
2022-09-28T20:13:10.543Z,93.9
2022-09-28T20:18:12.921Z,93.9
2022-09-28T20:23:19.321Z,94.0
2022-09-28T20:28:25.812Z,94.1
2022-09-28T20:33:32.886Z,94.1
2022-09-28T20:38:29.266Z,94.2
2022-09-28T20:43:44.637Z,94.2
2022-09-28T20:48:52.028Z,94.3
2022-09-28T20:53:58.430Z,94.4
2022-09-28T20:59:04.935Z,94.4
2022-09-28T21:04:38.943Z,94.6
2022-09-28T21:09:21.311Z,94.6
2022-09-28T21:14:27.664Z,94.7
2022-09-28T21:19:34.168Z,94.7
2022-09-28T21:29:47.141Z,95.3
2022-09-28T21:34:53.521Z,95.3
2022-09-28T21:39:59.934Z,95.5
2022-09-28T21:45:06.294Z,95.5
2022-09-28T21:50:12.788Z,95.7
2022-09-28T21:55:19.295Z,95.6
2022-09-28T22:00:25.670Z,95.8
2022-09-28T22:05:32.040Z,95.8
2022-09-28T22:10:38.453Z,95.8
2022-09-28T22:15:48.888Z,95.9
2022-09-28T22:21:15.231Z,96.0
2022-09-28T22:26:17.612Z,96.0
2022-09-28T22:36:09.441Z,96.1
2022-09-28T22:41:18.383Z,96.1
2022-09-28T22:46:24.839Z,96.1
2022-09-28T22:51:21.132Z,96.2
2022-09-28T22:57:21.702Z,96.1
2022-09-28T23:01:44.049Z,96.2
2022-09-28T23:06:50.484Z,96.2
2022-09-28T23:11:56.895Z,96.2
2022-09-28T23:17:03.511Z,96.2
2022-09-28T23:22:33.931Z,96.2
2022-09-28T23:32:22.656Z,96.2
2022-09-28T23:37:33.026Z,96.2
2022-09-28T23:42:39.403Z,96.2
2022-09-28T23:47:41.816Z,96.3
2022-09-28T23:52:48.293Z,96.3
2022-09-28T23:57:54.774Z,96.3
